메인 페이지
METAR-TAF:

METAR-TAF

공항 :

Wausau, 위스콘신, 미국

위도: 44-55-43N, 경도: 089-37-36W, 고도: 366m

현재 날씨관측

예보는 51분 전, 16:54시(UTC)에 발표되었습니다.
8kt
온도 7°C
습도 53%
기압 1022 hPa
시정: 16.1km
맑음

METAR: KAUW 051654Z AUTO 17008KT 10SM CLR 07/M02 A3017 RMK AO2 SLP231 T00671022

시각: 12:45 (17:45 UTC)

예보

예보는 18분 전, 17:27시(UTC)에 발표되었습니다.
예보 대상 시간: 05일 18시부터 06일 18시까지 (UTC)
5kt
시정: 10km
맑음
06일 0900시부터 (UTC)
여러 방향의 바람 3kt
시정: 10km
고도 25000ft 상공 구름 보통
06일 1000시부터 (UTC)
여러 방향의 바람 3kt
시정: 10km
고도 12000ft 상공 구름 많음
06일 1300시부터 (UTC)
남남동3kt
시정: 10km
고도 10000ft 상공 구름 많음

TAF: KAUW 051727Z 0518/0618 17005KT P6SM SKC FM060900 VRB03KT P6SM SCT250 FM061000 VRB03KT P6SM BKN120 FM061300 16003KT P6SM BKN100

4,000개 이상의 공항 관측 자료 및 예보 (METAR 및 TAF 보고).

지도상에서 검색 가능한 기상관측소가 노란 점과 빨간 점으로 표시되어 있습니다.

기상관측소 명을 보려면 표시 위로 마우스를 이동하세요.

날씨 관측과 예보를 보려면 클릭하세요.

지도 변경 : 확대하려면 엑스 표시가 있는 녹색 버튼, 축소하려면 빼기 표시가 있는 녹색 버튼, 다음 페이지의 지도를 보려면 녹색 화살표를 클릭하세요.


METAR-TAF: